sim
Sign-in with your pilot id or email,
or register
Callsign
Passwort

Schedule Details

Flight Number: OEO2517
Departure: London Heathrow Airport (EGLL) at 10:10
Arrival: Munich Airport (EDDM) at 12:00

Weather Information
Getting current METAR information for EGLL 271020Z AUTO 35011KT 300V030 9999 BKN025 13/07 Q1013 NOSIG
Getting current METAR information for EDDM 271020Z 22007KT 190V260 9999 FEW040 13/03 Q1006 NOSIG

Schedule Frequency

Route Map